createdAt,value
2022-08-23T00:01:17.794Z,4.10
2022-08-23T00:03:47.014Z,4.00
2022-08-23T00:06:14.680Z,4.00
2022-08-23T00:08:44.786Z,3.87
2022-08-23T00:11:27.023Z,4.43
2022-08-23T00:13:54.408Z,4.37
2022-08-23T00:16:21.919Z,4.80
2022-08-23T00:18:49.577Z,4.20
2022-08-23T00:21:17.116Z,4.27
2022-08-23T00:23:44.535Z,4.13
2022-08-23T00:26:12.007Z,3.70
2022-08-23T00:28:41.182Z,3.97
2022-08-23T00:31:08.935Z,4.17
2022-08-23T00:33:36.468Z,4.13
2022-08-23T00:36:04.275Z,3.67
2022-08-23T00:38:34.843Z,4.13
2022-08-23T00:41:03.082Z,3.90
2022-08-23T00:43:52.393Z,4.50
2022-08-23T00:46:55.363Z,3.57
2022-08-23T00:49:23.201Z,4.03
2022-08-23T00:51:53.590Z,3.50
2022-08-23T00:54:21.874Z,3.33
2022-08-23T00:56:49.379Z,3.90
2022-08-23T00:59:17.204Z,3.77
2022-08-23T01:01:45.999Z,2.97
2022-08-23T01:04:13.854Z,3.07
2022-08-23T01:06:44.058Z,3.63
2022-08-23T01:09:14.117Z,3.83
2022-08-23T01:11:43.694Z,3.20
2022-08-23T01:14:13.242Z,3.47
2022-08-23T01:16:45.608Z,3.00
2022-08-23T01:19:17.828Z,3.70
2022-08-23T01:21:47.974Z,3.30
2022-08-23T01:24:19.261Z,3.80
2022-08-23T01:27:05.245Z,3.80
2022-08-23T01:29:33.143Z,4.00
2022-08-23T01:32:00.772Z,4.20
2022-08-23T01:34:29.078Z,3.57
2022-08-23T01:36:57.489Z,3.80
2022-08-23T01:39:26.996Z,4.80
2022-08-23T01:41:55.162Z,4.20
2022-08-23T01:44:22.555Z,4.17
2022-08-23T01:46:57.857Z,4.30
2022-08-23T01:49:25.673Z,4.10
2022-08-23T01:51:53.103Z,4.37
2022-08-23T01:54:21.159Z,4.63
2022-08-23T01:56:50.143Z,4.50
2022-08-23T01:59:17.873Z,4.47
2022-08-23T02:01:48.707Z,4.07
2022-08-23T02:04:17.508Z,4.47
2022-08-23T02:06:45.086Z,4.30
2022-08-23T02:09:18.139Z,4.83
2022-08-23T02:11:47.378Z,4.37
2022-08-23T02:14:18.727Z,5.50
2022-08-23T02:17:03.601Z,5.07
2022-08-23T02:19:32.919Z,4.73
2022-08-23T02:22:00.617Z,5.13
2022-08-23T02:24:28.220Z,5.00
2022-08-23T02:26:58.631Z,5.37
2022-08-23T02:29:29.630Z,4.93
2022-08-23T02:31:57.468Z,5.63
2022-08-23T02:37:12.421Z,6.13
2022-08-23T02:39:40.622Z,5.63
2022-08-23T02:42:11.567Z,5.00
2022-08-23T02:44:42.902Z,5.03
2022-08-23T02:47:11.944Z,5.33
2022-08-23T02:49:43.285Z,4.87
2022-08-23T02:52:10.755Z,5.00
2022-08-23T02:54:38.374Z,4.50
2022-08-23T02:57:06.204Z,4.40
2022-08-23T02:59:33.766Z,4.30
2022-08-23T03:02:02.581Z,3.97
2022-08-23T03:04:36.094Z,4.07
2022-08-23T03:07:03.542Z,4.03
2022-08-23T03:09:31.087Z,4.00
2022-08-23T03:11:58.585Z,4.00
2022-08-23T03:14:27.631Z,4.00
2022-08-23T03:16:56.075Z,4.20
2022-08-23T03:19:27.658Z,3.77
2022-08-23T03:21:55.153Z,4.00
2022-08-23T03:24:23.191Z,3.70
2022-08-23T03:26:51.129Z,3.43
2022-08-23T03:29:19.542Z,3.30
2022-08-23T03:31:59.952Z,3.50
2022-08-23T03:34:30.131Z,3.57
2022-08-23T03:36:58.938Z,3.70
2022-08-23T03:39:27.129Z,3.77
2022-08-23T03:41:56.921Z,4.03
2022-08-23T03:44:27.366Z,3.87
2022-08-23T03:46:54.791Z,3.73
2022-08-23T03:49:22.433Z,4.07
2022-08-23T03:51:55.946Z,3.50
2022-08-23T03:54:23.341Z,3.33
2022-08-23T03:56:54.349Z,3.80
2022-08-23T03:59:21.832Z,4.20
2022-08-23T04:01:49.578Z,3.63
2022-08-23T04:04:17.645Z,4.13
2022-08-23T04:07:06.429Z,3.70
2022-08-23T04:09:35.364Z,3.97
2022-08-23T04:12:02.947Z,3.80
2022-08-23T04:14:30.481Z,3.90
2022-08-23T04:16:57.859Z,4.03
2022-08-23T04:19:25.481Z,4.20
2022-08-23T04:22:01.289Z,4.07
2022-08-23T04:24:37.453Z,4.10
2022-08-23T04:27:05.609Z,4.23
2022-08-23T04:29:34.235Z,4.30
2022-08-23T04:32:05.203Z,4.30
2022-08-23T04:34:35.502Z,4.10
2022-08-23T04:37:03.431Z,4.33
2022-08-23T04:39:52.247Z,4.37
2022-08-23T04:42:23.205Z,4.10
2022-08-23T04:44:51.965Z,4.50
2022-08-23T04:47:20.324Z,4.33
2022-08-23T04:49:48.560Z,4.20
2022-08-23T04:52:19.380Z,4.60
2022-08-23T04:54:49.333Z,4.60
2022-08-23T04:57:42.344Z,4.37
2022-08-23T05:00:13.037Z,4.13
2022-08-23T05:02:46.741Z,4.73
2022-08-23T05:05:14.556Z,4.30
2022-08-23T05:07:45.347Z,4.37
2022-08-23T05:10:16.230Z,4.80
2022-08-23T05:12:48.436Z,4.63
2022-08-23T05:15:17.066Z,5.00
2022-08-23T05:17:47.856Z,5.50
2022-08-23T05:20:16.932Z,5.67
2022-08-23T05:22:44.818Z,5.00
2022-08-23T05:25:48.951Z,5.43
2022-08-23T05:28:19.600Z,5.60
2022-08-23T05:30:56.522Z,5.27
2022-08-23T05:33:25.148Z,6.00
2022-08-23T05:35:53.598Z,5.83
2022-08-23T05:38:21.403Z,6.10
2022-08-23T05:40:52.656Z,6.10
2022-08-23T05:43:23.001Z,6.50
2022-08-23T05:45:59.681Z,6.40
2022-08-23T05:48:29.546Z,5.87
2022-08-23T05:51:09.009Z,6.40
2022-08-23T05:53:36.851Z,6.33
2022-08-23T05:56:10.885Z,6.63
2022-08-23T05:58:38.330Z,6.37
2022-08-23T06:01:05.919Z,6.60
2022-08-23T06:03:35.732Z,6.77
2022-08-23T06:06:03.709Z,6.50
2022-08-23T06:08:31.150Z,7.30
2022-08-23T06:11:03.608Z,6.83
2022-08-23T06:13:39.931Z,6.90
2022-08-23T06:16:14.479Z,6.90
2022-08-23T06:18:44.394Z,6.83
2022-08-23T06:21:44.359Z,6.73
2022-08-23T06:24:12.212Z,6.27
2022-08-23T06:26:48.597Z,6.37
2022-08-23T06:29:18.752Z,5.67
2022-08-23T06:31:49.571Z,5.90
2022-08-23T06:34:33.364Z,5.27
2022-08-23T06:37:22.855Z,5.43
2022-08-23T06:40:11.722Z,5.23
2022-08-23T06:42:48.327Z,5.87
2022-08-23T06:45:32.396Z,5.77
2022-08-23T06:48:02.673Z,5.67
2022-08-23T06:50:32.461Z,5.43
2022-08-23T06:53:18.446Z,5.80
2022-08-23T06:55:56.797Z,6.57
2022-08-23T06:58:42.727Z,6.33
2022-08-23T07:01:48.206Z,5.60
2022-08-23T07:04:28.865Z,6.63
2022-08-23T07:07:15.084Z,7.00
2022-08-23T07:09:42.916Z,7.70
2022-08-23T07:12:11.849Z,6.43
2022-08-23T07:14:42.884Z,7.33
2022-08-23T07:17:14.377Z,8.30
2022-08-23T07:19:44.039Z,7.90
2022-08-23T07:22:11.980Z,7.40
2022-08-23T07:24:39.411Z,7.23
2022-08-23T07:27:09.546Z,8.67
2022-08-23T07:29:47.576Z,7.40
2022-08-23T07:32:18.811Z,6.70
2022-08-23T07:34:47.659Z,6.80
2022-08-23T07:37:17.152Z,6.33
2022-08-23T07:39:46.001Z,6.83
2022-08-23T07:42:23.829Z,6.83
2022-08-23T07:44:54.657Z,7.00
2022-08-23T07:47:28.177Z,6.70
2022-08-23T07:49:57.225Z,6.63
2022-08-23T07:52:24.612Z,6.00
2022-08-23T07:54:52.304Z,6.33
2022-08-23T07:57:43.503Z,6.57
2022-08-23T08:00:32.224Z,6.10
2022-08-23T08:03:16.163Z,6.63
2022-08-23T08:06:07.124Z,7.23
2022-08-23T08:08:34.697Z,6.73
2022-08-23T08:11:02.183Z,7.30
2022-08-23T08:13:29.893Z,6.80
2022-08-23T08:15:57.655Z,6.60
2022-08-23T08:18:29.596Z,6.90
2022-08-23T08:21:15.665Z,6.53
2022-08-23T08:24:07.207Z,7.50
2022-08-23T08:26:42.465Z,7.40
2022-08-23T08:29:12.141Z,6.77
2022-08-23T08:31:42.594Z,6.87
2022-08-23T08:34:12.436Z,6.77
2022-08-23T08:36:42.051Z,6.73
2022-08-23T08:39:17.286Z,6.70
2022-08-23T08:41:54.125Z,7.03
2022-08-23T08:44:36.531Z,6.90
2022-08-23T08:47:08.079Z,7.13
2022-08-23T08:49:39.756Z,7.10
2022-08-23T08:52:14.463Z,6.67
2022-08-23T08:54:46.143Z,6.37
2022-08-23T08:57:17.969Z,6.50
2022-08-23T08:59:56.018Z,6.63
2022-08-23T09:02:33.192Z,6.53
2022-08-23T09:05:08.839Z,7.07
2022-08-23T09:07:41.912Z,7.37
2022-08-23T09:10:25.259Z,7.13
2022-08-23T09:13:13.536Z,7.03
2022-08-23T09:15:42.676Z,7.20
2022-08-23T09:18:11.441Z,6.77
2022-08-23T09:20:42.321Z,6.70
2022-08-23T09:23:12.237Z,6.73
2022-08-23T09:25:41.988Z,7.10
2022-08-23T09:28:16.647Z,6.43
2022-08-23T09:30:49.712Z,6.20
2022-08-23T09:33:18.991Z,6.33
2022-08-23T09:36:02.892Z,6.23
2022-08-23T09:38:31.487Z,6.80
2022-08-23T09:41:17.980Z,6.13
2022-08-23T09:43:48.180Z,6.83
2022-08-23T09:46:25.493Z,6.77
2022-08-23T09:48:55.129Z,6.47
2022-08-23T09:51:30.440Z,5.87
2022-08-23T09:54:06.815Z,6.33
2022-08-23T09:56:36.795Z,5.43
2022-08-23T09:59:20.281Z,6.00
2022-08-23T10:01:58.735Z,6.40
2022-08-23T10:04:32.814Z,6.00
2022-08-23T10:07:21.081Z,5.67
2022-08-23T10:09:48.513Z,5.50
2022-08-23T10:12:16.755Z,5.67
2022-08-23T10:14:45.296Z,5.57
2022-08-23T10:17:20.733Z,5.07
2022-08-23T10:19:51.315Z,4.70
2022-08-23T10:22:21.151Z,4.80
2022-08-23T10:25:16.194Z,4.80
2022-08-23T10:28:06.376Z,5.17
2022-08-23T10:30:38.338Z,5.00
2022-08-23T10:33:09.381Z,4.80
2022-08-23T10:35:50.156Z,4.60
2022-08-23T10:38:29.517Z,4.20
2022-08-23T10:41:01.362Z,3.80
2022-08-23T10:43:36.881Z,4.13
2022-08-23T10:46:06.385Z,4.33
2022-08-23T10:48:38.461Z,4.13
2022-08-23T10:51:09.182Z,4.10
2022-08-23T10:53:46.044Z,4.43
2022-08-23T10:56:18.735Z,4.13
2022-08-23T10:58:53.956Z,3.97
2022-08-23T11:01:22.872Z,3.97
2022-08-23T11:04:01.016Z,4.30
2022-08-23T11:06:47.550Z,3.60
2022-08-23T11:09:37.508Z,3.50
2022-08-23T11:12:13.601Z,3.73
2022-08-23T11:14:42.668Z,3.67
2022-08-23T11:17:12.377Z,4.07
2022-08-23T11:19:48.615Z,4.10
2022-08-23T11:22:18.052Z,3.80
2022-08-23T11:24:54.322Z,4.13
2022-08-23T11:27:33.731Z,4.23
2022-08-23T11:30:21.172Z,3.80
2022-08-23T11:33:01.071Z,4.20
2022-08-23T11:35:43.398Z,3.87
2022-08-23T11:38:14.563Z,3.60
2022-08-23T11:41:08.015Z,3.13
2022-08-23T11:43:38.656Z,3.70
2022-08-23T11:46:25.820Z,3.30
2022-08-23T11:49:03.133Z,3.53
2022-08-23T11:51:36.171Z,3.33
2022-08-23T11:54:18.133Z,3.23
2022-08-23T11:56:54.925Z,3.17
2022-08-23T11:59:41.736Z,3.60
2022-08-23T12:02:32.191Z,3.80
2022-08-23T12:05:00.524Z,3.70
2022-08-23T12:07:42.904Z,3.40
2022-08-23T12:10:10.318Z,3.27
2022-08-23T12:12:42.795Z,3.80
2022-08-23T12:15:14.481Z,3.47
2022-08-23T12:18:12.115Z,3.43
2022-08-23T12:20:41.495Z,3.50
2022-08-23T12:23:13.526Z,3.20
2022-08-23T12:25:41.601Z,3.40
2022-08-23T12:28:19.551Z,3.57
2022-08-23T12:30:54.474Z,3.87
2022-08-23T12:33:26.373Z,3.60
2022-08-23T12:36:00.544Z,3.27
2022-08-23T12:38:34.213Z,3.40
2022-08-23T12:41:14.327Z,3.77
2022-08-23T12:43:54.084Z,3.50
2022-08-23T12:46:31.397Z,3.37
2022-08-23T12:48:58.832Z,3.37
2022-08-23T12:51:26.473Z,4.07
2022-08-23T12:53:53.894Z,3.90
2022-08-23T12:56:22.737Z,3.97
2022-08-23T12:59:00.677Z,3.97
2022-08-23T13:01:30.176Z,3.97
2022-08-23T13:04:01.835Z,3.83
2022-08-23T13:06:31.625Z,3.47
2022-08-23T13:09:02.031Z,3.10
2022-08-23T13:11:32.156Z,3.13
2022-08-23T13:14:01.082Z,2.93
2022-08-23T13:16:30.449Z,3.47
2022-08-23T13:19:14.935Z,3.30
2022-08-23T13:21:42.303Z,3.10
2022-08-23T13:24:29.987Z,3.40
2022-08-23T13:27:17.097Z,2.67
2022-08-23T13:29:51.809Z,3.20
2022-08-23T13:32:30.171Z,3.20
2022-08-23T13:35:12.469Z,3.10
2022-08-23T13:37:45.774Z,2.90
2022-08-23T13:40:17.135Z,2.93
2022-08-23T13:42:50.969Z,2.97
2022-08-23T13:45:20.837Z,2.93
2022-08-23T13:47:49.527Z,3.00
2022-08-23T13:50:18.405Z,2.90
2022-08-23T13:53:13.010Z,3.30
2022-08-23T13:55:40.240Z,2.97
2022-08-23T13:58:10.013Z,2.60
2022-08-23T14:00:37.629Z,3.03
2022-08-23T14:03:05.135Z,2.90
2022-08-23T14:05:32.838Z,2.60
2022-08-23T14:08:01.818Z,2.97
2022-08-23T14:10:29.395Z,2.60
2022-08-23T14:12:56.947Z,2.73
2022-08-23T14:15:54.480Z,3.17
2022-08-23T14:18:12.394Z,3.03
2022-08-23T14:20:44.280Z,3.10
2022-08-23T14:23:14.701Z,3.10
2022-08-23T14:25:42.504Z,3.37
2022-08-23T14:28:09.963Z,2.73
2022-08-23T14:30:38.274Z,3.30
2022-08-23T14:33:06.288Z,2.90
2022-08-23T14:35:33.993Z,3.17
2022-08-23T14:38:04.109Z,3.10
2022-08-23T14:40:52.620Z,3.03
2022-08-23T14:43:21.770Z,3.43
2022-08-23T14:45:49.327Z,3.27
2022-08-23T14:48:17.337Z,3.43
2022-08-23T14:50:45.412Z,3.33
2022-08-23T14:53:13.437Z,3.43
2022-08-23T14:55:40.913Z,3.50
2022-08-23T14:58:09.703Z,3.60
2022-08-23T15:00:37.794Z,3.77
2022-08-23T15:03:09.634Z,3.53
2022-08-23T15:05:37.696Z,3.73
2022-08-23T15:08:05.297Z,3.60
2022-08-23T15:13:29.783Z,3.30
2022-08-23T15:16:01.381Z,3.50
2022-08-23T15:18:28.843Z,3.67
2022-08-23T15:20:56.470Z,3.57
2022-08-23T15:23:24.273Z,3.23
2022-08-23T15:25:52.120Z,3.73
2022-08-23T15:28:21.779Z,3.00
2022-08-23T15:30:50.063Z,3.63
2022-08-23T15:33:18.076Z,3.60
2022-08-23T15:35:48.221Z,3.30
2022-08-23T15:38:17.951Z,3.37
2022-08-23T15:40:45.492Z,3.67
2022-08-23T15:43:12.932Z,3.27
2022-08-23T15:45:42.051Z,2.90
2022-08-23T15:48:13.723Z,3.00
2022-08-23T15:50:44.933Z,3.33
2022-08-23T15:53:12.589Z,3.10
2022-08-23T15:55:40.585Z,3.33
2022-08-23T15:58:08.788Z,3.20
2022-08-23T16:00:36.169Z,3.20
2022-08-23T16:03:19.888Z,3.53
2022-08-23T16:05:50.092Z,3.47
2022-08-23T16:08:19.392Z,3.30
2022-08-23T16:10:46.823Z,3.27
2022-08-23T16:13:14.277Z,3.10
2022-08-23T16:15:41.643Z,4.17
2022-08-23T16:18:10.443Z,2.90
2022-08-23T16:20:38.085Z,3.50
2022-08-23T16:23:05.561Z,3.50
2022-08-23T16:25:33.040Z,3.00
2022-08-23T16:28:00.499Z,3.47
2022-08-23T16:30:29.063Z,3.40
2022-08-23T16:32:56.652Z,3.30
2022-08-23T16:35:25.689Z,3.07
2022-08-23T16:37:54.501Z,3.70
2022-08-23T16:40:22.565Z,3.10
2022-08-23T16:42:50.195Z,2.80
2022-08-23T16:45:17.818Z,3.17
2022-08-23T16:47:53.606Z,3.37
2022-08-23T16:50:21.445Z,3.10
2022-08-23T16:52:50.409Z,3.47
2022-08-23T16:55:17.973Z,3.30
2022-08-23T16:57:45.889Z,3.23
2022-08-23T17:00:14.191Z,3.13
2022-08-23T17:02:42.528Z,3.03
2022-08-23T17:05:11.347Z,3.10
2022-08-23T17:07:39.373Z,3.07
2022-08-23T17:10:08.937Z,3.10
2022-08-23T17:12:37.753Z,2.90
2022-08-23T17:15:07.217Z,2.93
2022-08-23T17:17:34.584Z,3.30
2022-08-23T17:20:01.963Z,3.30
2022-08-23T17:22:29.487Z,3.00
2022-08-23T17:24:58.395Z,3.20
2022-08-23T17:27:27.146Z,3.40
2022-08-23T17:29:54.721Z,3.00
2022-08-23T17:32:22.247Z,3.20
2022-08-23T17:34:49.611Z,3.30
2022-08-23T17:37:18.442Z,3.30
2022-08-23T17:39:46.019Z,3.10
2022-08-23T17:42:13.817Z,3.10
2022-08-23T17:44:42.674Z,3.30
2022-08-23T17:47:12.433Z,3.37
2022-08-23T17:49:40.335Z,3.60
2022-08-23T17:52:08.891Z,3.93
2022-08-23T17:54:36.263Z,3.07
2022-08-23T17:57:05.020Z,3.20
2022-08-23T17:59:32.918Z,3.70
2022-08-23T18:02:01.865Z,3.33
2022-08-23T18:04:29.380Z,3.37
2022-08-23T18:06:56.808Z,3.50
2022-08-23T18:09:24.223Z,3.20
2022-08-23T18:11:51.612Z,4.00
2022-08-23T18:14:18.992Z,3.57
2022-08-23T18:16:46.906Z,3.33
2022-08-23T18:19:15.741Z,3.60
2022-08-23T18:21:44.519Z,3.90
2022-08-23T18:24:12.000Z,3.70
2022-08-23T18:26:57.674Z,3.70
2022-08-23T18:29:25.360Z,3.80
2022-08-23T18:31:52.797Z,3.70
2022-08-23T18:34:21.840Z,4.23
2022-08-23T18:36:49.252Z,3.77
2022-08-23T18:39:16.675Z,4.13
2022-08-23T18:41:58.993Z,3.87
2022-08-23T18:44:26.388Z,4.17
2022-08-23T18:46:53.848Z,3.53
2022-08-23T18:49:22.644Z,3.67
2022-08-23T18:51:50.008Z,4.20
2022-08-23T18:54:17.601Z,3.70
2022-08-23T18:56:44.993Z,4.20
2022-08-23T18:59:12.911Z,3.73
2022-08-23T19:01:40.819Z,4.30
2022-08-23T19:04:09.212Z,3.97
2022-08-23T19:06:38.053Z,3.93
2022-08-23T19:09:05.745Z,3.90
2022-08-23T19:11:33.370Z,3.80
2022-08-23T19:14:01.799Z,3.90
2022-08-23T19:16:30.623Z,3.90
2022-08-23T19:18:58.756Z,4.23
2022-08-23T19:21:27.637Z,4.00
2022-08-23T19:23:57.188Z,3.40
2022-08-23T19:26:30.186Z,3.50
2022-08-23T19:28:57.570Z,3.83
2022-08-23T19:31:25.247Z,3.70
2022-08-23T19:33:52.699Z,3.47
2022-08-23T19:36:44.838Z,3.80
2022-08-23T19:39:09.540Z,3.63
2022-08-23T19:41:37.577Z,3.43
2022-08-23T19:44:05.191Z,3.50
2022-08-23T19:46:32.791Z,3.77
2022-08-23T19:49:00.182Z,3.50
2022-08-23T19:51:28.092Z,3.57
2022-08-23T19:54:11.406Z,3.60
2022-08-23T19:56:43.556Z,3.60
2022-08-23T19:59:13.723Z,3.80
2022-08-23T20:01:41.629Z,3.63
2022-08-23T20:04:09.273Z,4.07
2022-08-23T20:06:36.648Z,3.50
2022-08-23T20:09:05.583Z,3.47
2022-08-23T20:11:33.406Z,3.40
2022-08-23T20:14:04.813Z,3.53
2022-08-23T20:16:32.833Z,3.73
2022-08-23T20:19:01.390Z,4.27
2022-08-23T20:21:29.004Z,3.53
2022-08-23T20:24:01.664Z,3.83
2022-08-23T20:26:30.030Z,4.50
2022-08-23T20:29:00.005Z,4.90
2022-08-23T20:31:30.541Z,4.80
2022-08-23T20:33:58.296Z,4.53
2022-08-23T20:36:27.989Z,3.67
2022-08-23T20:38:57.957Z,4.03
2022-08-23T20:41:25.611Z,3.40
2022-08-23T20:43:55.008Z,3.67
2022-08-23T20:46:22.724Z,3.70
2022-08-23T20:48:51.816Z,3.83
2022-08-23T20:51:19.877Z,4.10
2022-08-23T20:53:47.873Z,3.70
2022-08-23T20:56:15.989Z,4.07
2022-08-23T20:58:43.565Z,3.70
2022-08-23T21:01:11.989Z,3.67
2022-08-23T21:03:39.568Z,3.63
2022-08-23T21:06:09.696Z,3.80
2022-08-23T21:08:41.999Z,3.70
2022-08-23T21:11:11.213Z,3.90
2022-08-23T21:13:41.248Z,4.07
2022-08-23T21:16:08.928Z,4.30
2022-08-23T21:18:36.561Z,4.30
2022-08-23T21:21:03.993Z,4.43
2022-08-23T21:23:33.059Z,4.57
2022-08-23T21:26:00.528Z,3.80
2022-08-23T21:28:28.311Z,4.33
2022-08-23T21:30:56.044Z,4.50
2022-08-23T21:33:25.178Z,4.70
2022-08-23T21:35:52.542Z,4.87
2022-08-23T21:38:19.920Z,4.50
2022-08-23T21:40:54.699Z,4.93
2022-08-23T21:43:22.193Z,4.23
2022-08-23T21:45:49.743Z,4.50
2022-08-23T21:48:17.249Z,4.27
2022-08-23T21:50:45.198Z,4.53
2022-08-23T21:53:12.980Z,4.60
2022-08-23T21:55:40.865Z,4.20
2022-08-23T21:58:09.837Z,4.10
2022-08-23T22:00:37.839Z,4.17
2022-08-23T22:03:06.002Z,4.90
2022-08-23T22:05:33.700Z,5.67
2022-08-23T22:08:01.068Z,4.60
2022-08-23T22:10:28.521Z,4.57
2022-08-23T22:12:55.962Z,4.20
2022-08-23T22:15:25.800Z,3.67
2022-08-23T22:17:53.200Z,5.00
2022-08-23T22:20:20.752Z,4.40
2022-08-23T22:22:48.141Z,4.33
2022-08-23T22:25:15.550Z,4.67
2022-08-23T22:27:42.940Z,5.43
2022-08-23T22:30:11.396Z,4.37
2022-08-23T22:32:40.497Z,4.60
2022-08-23T22:35:10.585Z,5.27
2022-08-23T22:37:49.427Z,5.10
2022-08-23T22:40:25.742Z,4.87
2022-08-23T22:42:53.117Z,5.40
2022-08-23T22:45:21.977Z,5.30
2022-08-23T22:47:50.845Z,5.73
2022-08-23T22:50:18.282Z,5.57
2022-08-23T22:52:45.655Z,6.20
2022-08-23T22:55:13.021Z,6.40
2022-08-23T22:57:40.622Z,5.97
2022-08-23T23:00:09.668Z,5.60
2022-08-23T23:02:38.817Z,5.63
2022-08-23T23:05:08.581Z,5.77
2022-08-23T23:08:08.213Z,5.50
2022-08-23T23:10:35.593Z,5.47
2022-08-23T23:13:03.016Z,5.00
2022-08-23T23:15:31.259Z,6.00
2022-08-23T23:17:58.671Z,7.00
2022-08-23T23:20:39.115Z,5.83
2022-08-23T23:23:06.847Z,5.67
2022-08-23T23:25:35.805Z,5.80
2022-08-23T23:28:03.488Z,5.90
2022-08-23T23:30:31.186Z,5.80
2022-08-23T23:32:58.870Z,5.90
2022-08-23T23:35:28.604Z,5.63
2022-08-23T23:37:56.017Z,5.07
2022-08-23T23:40:24.116Z,5.40
2022-08-23T23:42:51.508Z,5.73
2022-08-23T23:45:19.215Z,6.23
2022-08-23T23:47:46.641Z,5.80
2022-08-23T23:50:14.504Z,6.20
2022-08-23T23:52:43.513Z,5.63
2022-08-23T23:55:12.320Z,6.30
2022-08-23T23:57:39.801Z,6.43
